createdAt,value
2019-01-25T00:02:28.195Z,16.30
2019-01-25T00:04:59.708Z,16.20
2019-01-25T00:07:31.248Z,16.20
2019-01-25T00:10:02.739Z,15.80
2019-01-25T00:12:34.421Z,16.30
2019-01-25T00:15:06.561Z,16.40
2019-01-25T00:17:38.206Z,17.00
2019-01-25T00:20:10.975Z,15.90
2019-01-25T00:22:42.501Z,16.00
2019-01-25T00:25:13.965Z,15.80
2019-01-25T00:27:46.022Z,15.90
2019-01-25T00:30:18.558Z,15.40
2019-01-25T00:32:50.155Z,16.10
2019-01-25T00:35:21.602Z,16.60
2019-01-25T00:37:53.078Z,16.50
2019-01-25T00:40:24.522Z,16.40
2019-01-25T00:42:56.353Z,16.40
2019-01-25T00:45:27.820Z,16.90
2019-01-25T00:47:59.297Z,16.80
2019-01-25T00:50:30.797Z,16.70
2019-01-25T00:53:02.271Z,16.50
2019-01-25T00:55:33.777Z,16.90
2019-01-25T00:58:06.054Z,17.00
2019-01-25T01:00:37.510Z,17.10
2019-01-25T01:03:09.035Z,16.90
2019-01-25T01:05:40.496Z,17.00
2019-01-25T01:08:11.981Z,16.90
2019-01-25T01:10:43.447Z,16.80
2019-01-25T01:13:15.242Z,17.50
2019-01-25T01:15:46.702Z,17.90
2019-01-25T01:18:18.151Z,17.90
2019-01-25T01:20:49.977Z,18.60
2019-01-25T01:23:21.481Z,18.30
2019-01-25T01:25:52.914Z,17.80
2019-01-25T01:28:24.559Z,17.50
2019-01-25T01:30:56.033Z,18.00
2019-01-25T01:33:27.735Z,17.50
2019-01-25T01:35:59.199Z,17.50
2019-01-25T01:38:30.699Z,17.60
2019-01-25T01:41:02.147Z,17.70
2019-01-25T01:43:34.736Z,18.00
2019-01-25T01:46:06.215Z,18.40
2019-01-25T01:48:37.688Z,18.40
2019-01-25T01:51:09.432Z,18.10
2019-01-25T01:53:40.878Z,17.80
2019-01-25T01:56:12.345Z,17.90
2019-01-25T01:58:44.209Z,17.30
2019-01-25T02:01:15.673Z,16.90
2019-01-25T02:03:47.133Z,17.00
2019-01-25T02:06:18.611Z,17.60
2019-01-25T02:08:50.126Z,17.20
2019-01-25T02:11:21.575Z,17.50
2019-01-25T02:13:54.527Z,17.40
2019-01-25T02:16:25.973Z,17.20
2019-01-25T02:18:57.435Z,17.20
2019-01-25T02:21:28.900Z,17.30
2019-01-25T02:24:00.427Z,17.70
2019-01-25T02:26:31.907Z,17.90
2019-01-25T02:29:03.742Z,17.80
2019-01-25T02:31:35.229Z,17.80
2019-01-25T02:34:06.774Z,17.80
2019-01-25T02:36:38.406Z,18.30
2019-01-25T02:39:10.506Z,18.30
2019-01-25T02:41:42.012Z,18.60
2019-01-25T02:44:13.658Z,19.00
2019-01-25T02:46:45.146Z,18.90
2019-01-25T02:49:16.568Z,18.30
2019-01-25T02:51:48.056Z,17.80
2019-01-25T02:54:19.508Z,17.50
2019-01-25T02:56:50.977Z,17.40
2019-01-25T02:59:22.700Z,17.50
2019-01-25T03:01:54.149Z,17.70
2019-01-25T03:04:25.638Z,17.80
2019-01-25T03:06:57.089Z,17.80
2019-01-25T03:09:28.570Z,17.80
2019-01-25T03:12:00.048Z,17.80
2019-01-25T03:14:31.728Z,17.80
2019-01-25T03:17:03.184Z,18.00
2019-01-25T03:19:34.659Z,18.10
2019-01-25T03:22:06.086Z,18.10
2019-01-25T03:24:37.559Z,18.10
2019-01-25T03:27:09.008Z,17.90
2019-01-25T03:29:40.647Z,17.80
2019-01-25T03:32:12.157Z,17.70
2019-01-25T03:34:43.970Z,17.20
2019-01-25T03:37:15.432Z,17.40
2019-01-25T03:39:48.185Z,18.00
2019-01-25T03:42:19.625Z,17.90
2019-01-25T03:44:51.315Z,17.60
2019-01-25T03:47:22.787Z,17.70
2019-01-25T03:49:54.251Z,17.70
2019-01-25T03:52:25.690Z,18.30
2019-01-25T03:54:57.181Z,18.30
2019-01-25T03:57:28.635Z,18.90
2019-01-25T04:00:00.382Z,18.80
2019-01-25T04:02:31.839Z,18.40
2019-01-25T04:05:03.310Z,17.90
2019-01-25T04:07:34.788Z,17.40
2019-01-25T04:10:08.313Z,17.60
2019-01-25T04:12:39.796Z,17.40
2019-01-25T04:15:15.359Z,17.80
2019-01-25T04:17:46.866Z,17.80
2019-01-25T04:20:18.669Z,17.90
2019-01-25T04:22:50.498Z,17.60
2019-01-25T04:25:23.009Z,18.10
2019-01-25T04:27:54.490Z,17.80
2019-01-25T04:30:28.752Z,17.70
2019-01-25T04:33:00.245Z,18.30
2019-01-25T04:35:31.906Z,18.40
2019-01-25T04:38:03.370Z,18.20
2019-01-25T04:40:34.994Z,18.00
2019-01-25T04:43:06.452Z,18.30
2019-01-25T04:45:38.080Z,18.20
2019-01-25T04:48:14.552Z,18.00
2019-01-25T04:50:46.025Z,17.40
2019-01-25T04:53:17.462Z,17.80
2019-01-25T04:55:48.972Z,17.60
2019-01-25T04:58:21.300Z,17.40
2019-01-25T05:00:52.972Z,17.50
2019-01-25T05:03:25.594Z,17.40
2019-01-25T05:05:57.190Z,17.10
2019-01-25T05:08:28.640Z,16.90
2019-01-25T05:11:00.154Z,16.90
2019-01-25T05:13:31.782Z,17.10
2019-01-25T05:16:05.265Z,16.80
2019-01-25T05:18:36.707Z,17.10
2019-01-25T05:21:08.158Z,17.10
2019-01-25T05:23:39.668Z,17.30
2019-01-25T05:26:11.118Z,17.40
2019-01-25T05:28:42.609Z,17.60
2019-01-25T05:31:14.726Z,17.40
2019-01-25T05:33:54.511Z,17.30
2019-01-25T05:36:26.218Z,17.60
2019-01-25T05:38:57.735Z,17.10
2019-01-25T05:41:29.253Z,17.90
2019-01-25T05:44:00.786Z,18.00
2019-01-25T05:46:32.618Z,17.70
2019-01-25T05:49:04.121Z,17.60
2019-01-25T05:51:35.621Z,17.40
2019-01-25T05:54:07.191Z,17.20
2019-01-25T05:56:44.034Z,17.20
2019-01-25T05:59:15.519Z,17.30
2019-01-25T06:01:47.482Z,17.20
2019-01-25T06:04:18.981Z,16.80
2019-01-25T06:06:50.437Z,17.00
2019-01-25T06:09:22.645Z,17.10
2019-01-25T06:11:54.108Z,17.00
2019-01-25T06:14:25.572Z,16.70
2019-01-25T06:16:57.031Z,16.90
2019-01-25T06:19:30.224Z,17.20
2019-01-25T06:22:01.673Z,17.30
2019-01-25T06:24:33.169Z,17.30
2019-01-25T06:27:04.636Z,17.40
2019-01-25T06:29:36.469Z,17.60
2019-01-25T06:32:07.963Z,17.60
2019-01-25T06:34:39.403Z,17.40
2019-01-25T06:37:11.179Z,17.40
2019-01-25T06:39:42.658Z,17.40
2019-01-25T06:42:14.207Z,17.50
2019-01-25T06:44:45.670Z,17.10
2019-01-25T06:47:17.354Z,17.40
2019-01-25T06:49:48.823Z,17.50
2019-01-25T06:52:20.305Z,18.10
2019-01-25T06:54:51.764Z,18.80
2019-01-25T06:57:33.340Z,18.10
2019-01-25T07:00:05.922Z,17.80
2019-01-25T07:02:40.116Z,17.70
2019-01-25T07:05:11.667Z,17.80
2019-01-25T07:07:45.391Z,17.50
2019-01-25T07:10:19.018Z,17.80
2019-01-25T07:12:50.481Z,18.30
2019-01-25T07:15:23.950Z,18.60
2019-01-25T07:17:55.774Z,18.60
2019-01-25T07:20:27.268Z,18.40
2019-01-25T07:22:58.715Z,18.80
2019-01-25T07:25:30.247Z,19.10
2019-01-25T07:28:01.744Z,19.10
2019-01-25T07:30:33.269Z,18.70
2019-01-25T07:33:04.800Z,18.80
2019-01-25T07:35:36.205Z,18.80
2019-01-25T07:38:07.858Z,18.30
2019-01-25T07:40:39.342Z,18.30
2019-01-25T07:43:10.822Z,18.20
2019-01-25T07:45:42.473Z,17.80
2019-01-25T07:48:14.263Z,17.70
2019-01-25T07:50:45.772Z,17.30
2019-01-25T07:53:17.306Z,17.80
2019-01-25T07:55:48.856Z,17.60
2019-01-25T07:58:20.419Z,17.10
2019-01-25T08:00:51.877Z,17.20
2019-01-25T08:03:23.694Z,17.60
2019-01-25T08:05:55.270Z,17.60
2019-01-25T08:08:26.776Z,17.90
2019-01-25T08:10:58.362Z,17.80
2019-01-25T08:13:29.808Z,17.60
2019-01-25T08:16:01.328Z,17.20
2019-01-25T08:18:33.162Z,17.20
2019-01-25T08:21:04.702Z,17.00
2019-01-25T08:23:36.211Z,16.70
2019-01-25T08:26:07.761Z,17.20
2019-01-25T08:28:39.372Z,17.30
2019-01-25T08:31:10.883Z,17.30
2019-01-25T08:33:42.619Z,16.70
2019-01-25T08:36:14.212Z,16.60
2019-01-25T08:38:45.986Z,16.30
2019-01-25T08:41:17.544Z,16.80
2019-01-25T08:43:49.081Z,16.80
2019-01-25T08:46:20.679Z,17.10
2019-01-25T08:48:52.173Z,16.50
2019-01-25T08:51:23.757Z,16.50
2019-01-25T08:53:55.435Z,16.70
2019-01-25T08:56:27.115Z,17.20
2019-01-25T08:58:58.913Z,17.40
2019-01-25T09:01:30.732Z,17.90
2019-01-25T09:04:02.449Z,17.90
2019-01-25T09:06:33.918Z,17.70
2019-01-25T09:09:09.473Z,17.80
2019-01-25T09:11:40.974Z,17.80
2019-01-25T09:14:12.476Z,17.30
2019-01-25T09:16:44.089Z,17.60
2019-01-25T09:19:15.783Z,17.10
2019-01-25T09:21:47.366Z,17.10
2019-01-25T09:24:18.868Z,17.60
2019-01-25T09:26:50.377Z,17.50
2019-01-25T09:29:21.907Z,17.60
2019-01-25T09:31:53.435Z,17.30
2019-01-25T09:34:24.981Z,16.90
2019-01-25T09:36:56.450Z,17.10
2019-01-25T09:39:28.182Z,16.70
2019-01-25T09:41:59.695Z,16.60
2019-01-25T09:44:31.151Z,16.90
2019-01-25T09:47:02.636Z,16.80
2019-01-25T09:49:34.453Z,16.50
2019-01-25T09:52:05.966Z,17.10
2019-01-25T09:54:37.455Z,17.00
2019-01-25T09:57:09.227Z,17.10
2019-01-25T09:59:42.309Z,17.70
2019-01-25T10:02:13.976Z,17.80
2019-01-25T10:04:45.473Z,17.40
2019-01-25T10:07:16.971Z,17.50
2019-01-25T10:09:48.473Z,17.60
2019-01-25T10:12:19.974Z,17.50
2019-01-25T10:14:51.387Z,17.40
2019-01-25T10:17:22.900Z,18.20
2019-01-25T10:19:54.607Z,17.50
2019-01-25T10:22:26.107Z,17.30
2019-01-25T10:24:57.603Z,16.90
2019-01-25T10:27:29.094Z,17.30
2019-01-25T10:30:00.619Z,17.40
2019-01-25T10:32:32.132Z,17.50
2019-01-25T10:35:03.958Z,17.90
2019-01-25T10:37:35.450Z,17.60
2019-01-25T10:40:10.789Z,17.60
2019-01-25T10:42:45.490Z,17.20
2019-01-25T10:45:36.628Z,17.30
2019-01-25T10:48:09.273Z,17.40
2019-01-25T10:50:41.036Z,17.40
2019-01-25T10:53:12.535Z,17.10
2019-01-25T10:55:44.025Z,17.00
2019-01-25T10:58:15.558Z,16.90
2019-01-25T11:00:47.006Z,16.50
2019-01-25T11:03:19.756Z,16.90
2019-01-25T11:05:51.698Z,17.00
2019-01-25T11:08:23.265Z,16.70
2019-01-25T11:10:54.769Z,16.30
2019-01-25T11:13:26.333Z,16.20
2019-01-25T11:15:58.056Z,16.30
2019-01-25T11:18:29.567Z,16.30
2019-01-25T11:21:01.281Z,16.60
2019-01-25T11:23:32.757Z,16.20
2019-01-25T11:26:04.243Z,16.40
2019-01-25T11:28:35.881Z,16.80
2019-01-25T11:31:07.338Z,16.70
2019-01-25T11:33:38.839Z,16.30
2019-01-25T11:36:10.703Z,16.80
2019-01-25T11:38:42.182Z,17.10
2019-01-25T11:41:13.678Z,17.00
2019-01-25T11:43:45.202Z,17.00
2019-01-25T11:46:16.670Z,17.00
2019-01-25T11:48:48.287Z,16.80
2019-01-25T11:51:20.117Z,16.40
2019-01-25T11:53:51.733Z,16.50
2019-01-25T11:56:23.322Z,16.00
2019-01-25T11:58:54.844Z,16.20
2019-01-25T12:01:26.375Z,16.20
2019-01-25T12:03:57.882Z,16.40
2019-01-25T12:06:29.644Z,16.40
2019-01-25T12:09:01.143Z,16.50
2019-01-25T12:11:34.450Z,16.50
2019-01-25T12:14:06.065Z,16.10
2019-01-25T12:16:37.572Z,16.20
2019-01-25T12:19:09.083Z,16.10
2019-01-25T12:21:40.773Z,15.90
2019-01-25T12:24:12.352Z,16.50
2019-01-25T12:26:44.989Z,16.40
2019-01-25T12:29:16.805Z,16.40
2019-01-25T12:31:48.372Z,15.80
2019-01-25T12:34:19.918Z,15.70
2019-01-25T12:36:51.628Z,15.60
2019-01-25T12:39:23.116Z,15.70
2019-01-25T12:41:54.697Z,15.70
2019-01-25T12:44:26.191Z,16.40
2019-01-25T12:46:57.741Z,15.40
2019-01-25T12:49:29.198Z,15.50
2019-01-25T12:52:08.497Z,15.50
2019-01-25T12:54:40.038Z,15.60
2019-01-25T12:57:11.637Z,15.20
2019-01-25T12:59:43.097Z,15.20
2019-01-25T13:02:14.622Z,15.20
2019-01-25T13:04:46.112Z,15.40
2019-01-25T13:07:17.876Z,15.50
2019-01-25T13:09:49.372Z,15.40
2019-01-25T13:12:25.103Z,15.50
2019-01-25T13:14:54.079Z,15.60
2019-01-25T13:17:25.638Z,15.60
2019-01-25T13:19:58.871Z,15.50
2019-01-25T13:22:32.590Z,15.60
2019-01-25T13:25:04.281Z,15.60
2019-01-25T13:27:35.832Z,15.70
2019-01-25T13:30:20.775Z,15.40
2019-01-25T13:32:52.306Z,15.50
2019-01-25T13:35:23.821Z,15.40
2019-01-25T13:37:55.636Z,15.40
2019-01-25T13:40:27.227Z,15.60
2019-01-25T13:42:58.839Z,15.50
2019-01-25T13:45:30.435Z,15.50
2019-01-25T13:48:01.926Z,15.60
2019-01-25T13:50:33.453Z,15.70
2019-01-25T13:53:05.062Z,16.10
2019-01-25T13:55:36.581Z,15.70
2019-01-25T13:58:08.372Z,15.80
2019-01-25T14:00:39.922Z,15.80
2019-01-25T14:03:11.422Z,15.70
2019-01-25T14:05:42.936Z,15.50
2019-01-25T14:08:14.462Z,15.60
2019-01-25T14:10:45.978Z,15.70
2019-01-25T14:13:17.625Z,15.60
2019-01-25T14:15:49.184Z,15.60
2019-01-25T14:18:20.671Z,15.70
2019-01-25T14:20:52.232Z,15.50
2019-01-25T14:23:23.957Z,15.50
2019-01-25T14:25:56.868Z,15.60
2019-01-25T14:28:28.460Z,15.20
2019-01-25T14:31:00.048Z,15.40
2019-01-25T14:33:31.705Z,15.30
2019-01-25T14:36:03.459Z,15.40
2019-01-25T14:38:35.236Z,15.50
2019-01-25T14:41:06.779Z,15.60
2019-01-25T14:43:38.565Z,15.60
2019-01-25T14:46:10.111Z,15.40
2019-01-25T14:48:41.601Z,15.40
2019-01-25T14:51:13.476Z,15.40
2019-01-25T14:53:45.403Z,15.40
2019-01-25T14:56:17.199Z,15.50
2019-01-25T14:58:48.745Z,15.40
2019-01-25T15:01:20.328Z,15.40
2019-01-25T15:03:51.800Z,15.20
2019-01-25T15:06:23.305Z,15.40
2019-01-25T15:08:55.001Z,15.20
2019-01-25T15:11:26.515Z,15.30
2019-01-25T15:14:02.521Z,15.40
2019-01-25T15:16:31.557Z,15.60
2019-01-25T15:19:03.050Z,15.20
2019-01-25T15:21:34.624Z,15.50
2019-01-25T15:24:06.520Z,15.40
2019-01-25T15:26:38.024Z,15.40
2019-01-25T15:29:09.581Z,15.40
2019-01-25T15:31:41.089Z,15.30
2019-01-25T15:34:12.647Z,15.30
2019-01-25T15:36:44.188Z,15.40
2019-01-25T15:39:15.883Z,15.60
2019-01-25T15:41:47.357Z,15.70
2019-01-25T15:44:19.233Z,15.50
2019-01-25T15:46:50.776Z,15.50
2019-01-25T15:49:22.324Z,15.60
2019-01-25T15:51:53.860Z,15.50
2019-01-25T15:54:25.850Z,15.60
2019-01-25T15:56:57.546Z,15.90
2019-01-25T15:59:29.050Z,16.00
2019-01-25T16:02:00.635Z,16.20
2019-01-25T16:04:35.071Z,16.30
2019-01-25T16:07:06.929Z,16.30
2019-01-25T16:09:38.752Z,16.10
2019-01-25T16:12:10.274Z,15.90
2019-01-25T16:14:41.916Z,15.60
2019-01-25T16:17:13.502Z,15.70
2019-01-25T16:19:45.556Z,15.60
2019-01-25T16:22:17.288Z,15.70
2019-01-25T16:24:48.923Z,15.60
2019-01-25T16:27:20.528Z,16.20
2019-01-25T16:29:52.173Z,16.40
2019-01-25T16:32:24.836Z,15.90
2019-01-25T16:34:56.570Z,16.30
2019-01-25T16:37:29.080Z,16.00
2019-01-25T16:40:00.822Z,16.30
2019-01-25T16:42:32.670Z,16.60
2019-01-25T16:45:04.971Z,16.50
2019-01-25T16:47:36.763Z,16.40
2019-01-25T16:50:08.902Z,16.90
2019-01-25T16:52:40.541Z,16.40
2019-01-25T16:55:13.505Z,16.40
2019-01-25T16:57:45.152Z,16.70
2019-01-25T17:00:26.855Z,16.30
2019-01-25T17:02:58.691Z,16.60
2019-01-25T17:05:30.826Z,16.90
2019-01-25T17:08:02.858Z,17.00
2019-01-25T17:10:34.975Z,16.90
2019-01-25T17:13:07.241Z,17.10
2019-01-25T17:15:39.439Z,17.20
2019-01-25T17:18:11.241Z,17.70
2019-01-25T17:20:43.022Z,17.60
2019-01-25T17:23:14.696Z,17.30
2019-01-25T17:25:46.336Z,17.10
2019-01-25T17:28:18.099Z,17.10
2019-01-25T17:30:49.807Z,17.20
2019-01-25T17:33:21.419Z,17.00
2019-01-25T17:35:53.068Z,17.20
2019-01-25T17:38:24.712Z,16.90
2019-01-25T17:40:56.652Z,16.70
2019-01-25T17:43:28.310Z,16.60
2019-01-25T17:45:59.859Z,16.30
2019-01-25T17:48:31.406Z,16.10
2019-01-25T17:51:03.070Z,16.40
2019-01-25T17:53:34.723Z,16.00
2019-01-25T17:56:06.829Z,15.80
2019-01-25T17:58:39.668Z,15.90
2019-01-25T18:01:11.324Z,15.90
2019-01-25T18:03:42.961Z,15.70
2019-01-25T18:06:14.656Z,15.80
2019-01-25T18:08:46.296Z,15.60
2019-01-25T18:11:17.993Z,15.70
2019-01-25T18:13:49.575Z,15.40
2019-01-25T18:16:21.160Z,15.40
2019-01-25T18:18:52.740Z,15.50
2019-01-25T18:21:24.259Z,15.20
2019-01-25T18:23:55.851Z,15.50
2019-01-25T18:26:27.793Z,15.40
2019-01-25T18:29:07.130Z,15.30
2019-01-25T18:31:38.654Z,15.20
2019-01-25T18:34:10.251Z,15.20
2019-01-25T18:36:41.959Z,15.20
2019-01-25T18:39:13.617Z,15.10
2019-01-25T18:41:45.920Z,15.40
2019-01-25T18:44:17.971Z,15.30
2019-01-25T18:46:49.671Z,15.70
2019-01-25T18:49:22.123Z,15.90
2019-01-25T18:51:54.149Z,16.10
2019-01-25T18:54:25.837Z,16.10
2019-01-25T18:56:57.608Z,16.30
2019-01-25T18:59:29.152Z,16.20
2019-01-25T19:02:00.680Z,16.30
2019-01-25T19:04:32.256Z,16.20
2019-01-25T19:07:03.842Z,16.10
2019-01-25T19:09:36.638Z,17.20
2019-01-25T19:12:08.174Z,16.60
2019-01-25T19:14:40.401Z,16.10
2019-01-25T19:17:12.175Z,16.10
2019-01-25T19:19:43.819Z,15.90
2019-01-25T19:22:15.346Z,15.90
2019-01-25T19:24:46.914Z,15.80
2019-01-25T19:27:18.843Z,16.10
2019-01-25T19:29:50.543Z,16.20
2019-01-25T19:32:22.088Z,16.50
2019-01-25T19:34:53.750Z,16.30
2019-01-25T19:37:25.328Z,16.20
2019-01-25T19:39:57.036Z,16.40
2019-01-25T19:42:28.878Z,16.40
2019-01-25T19:45:00.572Z,16.10
2019-01-25T19:47:32.881Z,16.40
2019-01-25T19:50:05.029Z,16.10
2019-01-25T19:52:36.648Z,16.10
2019-01-25T19:55:12.221Z,15.70
2019-01-25T19:57:43.916Z,16.40
2019-01-25T20:00:25.757Z,16.00
2019-01-25T20:02:57.386Z,16.10
2019-01-25T20:05:30.568Z,15.90
2019-01-25T20:08:02.225Z,15.90
2019-01-25T20:10:35.447Z,16.30
2019-01-25T20:13:08.266Z,16.60
2019-01-25T20:15:40.024Z,16.40
2019-01-25T20:18:11.801Z,16.20
2019-01-25T20:20:43.421Z,16.30
2019-01-25T20:23:14.983Z,16.40
2019-01-25T20:25:46.650Z,16.10
2019-01-25T20:28:18.664Z,16.00
2019-01-25T20:30:50.306Z,16.10
2019-01-25T20:33:22.001Z,16.10
2019-01-25T20:35:53.746Z,16.30
2019-01-25T20:38:25.323Z,16.40
2019-01-25T20:40:57.280Z,16.30
2019-01-25T20:43:29.034Z,16.20
2019-01-25T20:46:00.600Z,16.50
2019-01-25T20:48:32.377Z,16.60
2019-01-25T20:51:04.228Z,16.40
2019-01-25T20:53:35.783Z,17.00
2019-01-25T20:56:09.548Z,17.20
2019-01-25T20:58:42.723Z,16.90
2019-01-25T21:01:14.432Z,16.80
2019-01-25T21:03:46.053Z,16.80
2019-01-25T21:06:17.630Z,16.80
2019-01-25T21:08:49.227Z,16.60
2019-01-25T21:11:20.832Z,16.20
2019-01-25T21:13:52.927Z,16.50
2019-01-25T21:16:26.659Z,16.30
2019-01-25T21:18:59.612Z,16.40
2019-01-25T21:21:31.192Z,16.40
2019-01-25T21:24:02.810Z,16.40
2019-01-25T21:26:34.442Z,16.50
2019-01-25T21:29:06.012Z,16.60
2019-01-25T21:31:37.487Z,16.80
2019-01-25T21:34:09.082Z,16.50
2019-01-25T21:36:40.660Z,16.20
2019-01-25T21:39:12.484Z,16.10
2019-01-25T21:41:44.037Z,16.30
2019-01-25T21:44:15.866Z,16.40
2019-01-25T21:46:47.483Z,16.70
2019-01-25T21:49:19.541Z,17.10
2019-01-25T21:51:51.188Z,17.10
2019-01-25T21:54:22.773Z,16.60
2019-01-25T21:56:54.302Z,16.70
2019-01-25T21:59:26.424Z,16.60
2019-01-25T22:01:57.964Z,16.40
2019-01-25T22:04:29.509Z,16.40
2019-01-25T22:07:01.102Z,16.30
2019-01-25T22:09:32.751Z,16.60
2019-01-25T22:12:04.584Z,16.50
2019-01-25T22:14:36.356Z,16.10
2019-01-25T22:17:07.952Z,16.10
2019-01-25T22:19:39.882Z,16.60
2019-01-25T22:22:11.474Z,16.60
2019-01-25T22:24:43.267Z,16.70
2019-01-25T22:27:14.939Z,16.30
2019-01-25T22:29:46.822Z,16.10
2019-01-25T22:32:18.439Z,16.00
2019-01-25T22:34:50.055Z,16.10
2019-01-25T22:37:23.174Z,16.50
2019-01-25T22:39:54.720Z,16.50
2019-01-25T22:42:26.318Z,16.80
2019-01-25T22:44:57.851Z,17.30
2019-01-25T22:47:29.361Z,17.20
2019-01-25T22:50:00.939Z,16.60
2019-01-25T22:52:32.663Z,16.80
2019-01-25T22:55:04.269Z,16.50
2019-01-25T22:57:36.080Z,16.70
2019-01-25T23:00:51.064Z,16.60
2019-01-25T23:04:04.240Z,16.60
2019-01-25T23:07:03.991Z,16.80
2019-01-25T23:10:03.901Z,16.60
2019-01-25T23:12:35.912Z,16.50
2019-01-25T23:15:10.397Z,16.60
2019-01-25T23:17:41.917Z,16.70
2019-01-25T23:20:14.323Z,16.50
2019-01-25T23:22:45.979Z,16.80
2019-01-25T23:25:17.452Z,16.80
2019-01-25T23:27:49.064Z,17.00
2019-01-25T23:30:21.130Z,17.00
2019-01-25T23:32:52.659Z,17.00
2019-01-25T23:35:24.142Z,16.90
2019-01-25T23:37:55.630Z,16.60
2019-01-25T23:40:27.121Z,16.80
2019-01-25T23:42:58.642Z,16.70
2019-01-25T23:45:30.296Z,16.60
2019-01-25T23:48:01.935Z,16.80
2019-01-25T23:50:33.693Z,16.60
2019-01-25T23:53:05.373Z,16.60
2019-01-25T23:55:36.859Z,16.40
2019-01-25T23:58:08.470Z,16.40
